createdAt,value
2023-02-22T00:00:02.949Z,3.77
2023-02-22T00:02:50.513Z,4.77
2023-02-22T00:05:39.399Z,3.40
2023-02-22T00:08:30.472Z,4.00
2023-02-22T00:11:17.242Z,2.57
2023-02-22T00:14:03.627Z,1.97
2023-02-22T00:16:51.950Z,1.90
2023-02-22T00:19:38.563Z,3.13
2023-02-22T00:22:25.140Z,1.80
2023-02-22T00:25:11.705Z,2.10
2023-02-22T00:27:58.224Z,1.70
2023-02-22T00:30:44.886Z,2.10
2023-02-22T00:33:32.688Z,2.40
2023-02-22T00:36:20.262Z,4.37
2023-02-22T00:39:07.704Z,5.37
2023-02-22T00:41:54.104Z,2.90
2023-02-22T00:44:40.667Z,3.67
2023-02-22T00:47:27.533Z,2.53
2023-02-22T00:50:15.804Z,2.80
2023-02-22T00:53:03.804Z,1.87
2023-02-22T00:55:50.703Z,2.20
2023-02-22T00:58:36.722Z,2.13
2023-02-22T01:01:24.298Z,2.10
2023-02-22T01:04:12.456Z,2.00
2023-02-22T01:07:00.958Z,2.23
2023-02-22T01:09:47.614Z,2.97
2023-02-22T01:12:34.169Z,2.73
2023-02-22T01:15:21.805Z,2.53
2023-02-22T01:18:08.371Z,2.60
2023-02-22T01:20:54.856Z,2.50
2023-02-22T01:23:42.572Z,2.43
2023-02-22T01:26:29.013Z,2.00
2023-02-22T01:29:16.242Z,2.60
2023-02-22T01:32:03.240Z,2.20
2023-02-22T01:34:49.615Z,2.30
2023-02-22T01:37:36.067Z,2.73
2023-02-22T01:40:25.178Z,2.47
2023-02-22T01:43:16.721Z,2.50
2023-02-22T01:46:03.495Z,2.57
2023-02-22T01:48:51.827Z,3.30
2023-02-22T01:51:40.043Z,2.60
2023-02-22T01:54:27.062Z,2.57
2023-02-22T01:57:17.012Z,2.40
2023-02-22T02:00:10.024Z,3.47
2023-02-22T02:02:58.949Z,2.63
2023-02-22T02:05:45.906Z,2.57
2023-02-22T02:08:37.239Z,3.50
2023-02-22T02:11:25.942Z,1.97
2023-02-22T02:14:14.373Z,1.90
2023-02-22T02:17:02.388Z,2.13
2023-02-22T02:19:56.829Z,2.23
2023-02-22T02:22:46.956Z,2.17
2023-02-22T02:25:49.377Z,2.77
2023-02-22T02:28:49.192Z,3.00
2023-02-22T02:31:56.901Z,3.00
2023-02-22T02:34:50.573Z,3.20
2023-02-22T02:37:39.723Z,3.30
2023-02-22T02:40:30.164Z,3.33
2023-02-22T02:43:19.172Z,3.33
2023-02-22T02:46:07.480Z,2.73
2023-02-22T02:48:56.956Z,2.80
2023-02-22T02:51:47.180Z,4.57
2023-02-22T02:54:33.859Z,3.50
2023-02-22T02:57:19.951Z,3.83
2023-02-22T03:00:22.272Z,3.60
2023-02-22T03:03:24.296Z,3.37
2023-02-22T03:06:15.008Z,2.30
2023-02-22T03:09:09.105Z,2.17
2023-02-22T03:12:01.509Z,2.60
2023-02-22T03:14:55.889Z,2.50
2023-02-22T03:17:47.715Z,2.07
2023-02-22T03:20:43.213Z,2.20
2023-02-22T03:23:33.511Z,1.73
2023-02-22T03:26:24.167Z,2.17
2023-02-22T03:29:12.514Z,2.40
2023-02-22T03:32:01.561Z,2.17
2023-02-22T03:34:50.761Z,2.00
2023-02-22T03:37:39.739Z,2.00
2023-02-22T03:40:31.258Z,2.47
2023-02-22T03:43:21.190Z,2.40
2023-02-22T03:46:09.366Z,1.57
2023-02-22T03:48:57.377Z,1.47
2023-02-22T03:51:43.903Z,1.23
2023-02-22T03:54:30.276Z,1.50
2023-02-22T03:57:18.872Z,1.33
2023-02-22T04:00:08.654Z,1.13
2023-02-22T04:02:55.154Z,1.40
2023-02-22T04:05:42.286Z,1.30
2023-02-22T04:08:28.454Z,1.40
2023-02-22T04:11:15.019Z,1.30
2023-02-22T04:14:01.559Z,1.30
2023-02-22T04:16:49.239Z,1.07
2023-02-22T04:19:35.717Z,1.53
2023-02-22T04:22:22.051Z,1.50
2023-02-22T04:25:08.604Z,1.57
2023-02-22T04:27:55.793Z,1.30
2023-02-22T04:30:43.999Z,1.50
2023-02-22T04:33:31.578Z,1.40
2023-02-22T04:36:18.305Z,2.03
2023-02-22T04:39:05.422Z,1.70
2023-02-22T04:41:51.869Z,1.80
2023-02-22T04:44:38.305Z,1.70
2023-02-22T04:47:24.892Z,1.60
2023-02-22T04:50:12.676Z,1.60
2023-02-22T04:52:59.179Z,1.90
2023-02-22T04:55:45.726Z,1.60
2023-02-22T04:58:32.497Z,1.67
2023-02-22T05:01:18.934Z,1.67
2023-02-22T05:04:06.050Z,1.50
2023-02-22T05:06:55.074Z,1.83
2023-02-22T05:09:41.283Z,1.83
2023-02-22T05:12:28.300Z,2.50
2023-02-22T05:15:17.227Z,2.00
2023-02-22T05:18:03.496Z,1.63
2023-02-22T05:20:49.813Z,2.00
2023-02-22T05:23:37.300Z,1.80
2023-02-22T05:26:23.631Z,2.00
2023-02-22T05:29:09.765Z,1.80
2023-02-22T05:31:56.084Z,1.97
2023-02-22T05:34:42.754Z,1.67
2023-02-22T05:37:29.064Z,1.60
2023-02-22T05:40:18.356Z,1.80
2023-02-22T05:43:04.914Z,1.33
2023-02-22T05:45:51.770Z,1.50
2023-02-22T05:48:38.354Z,1.60
2023-02-22T05:51:24.722Z,1.67
2023-02-22T05:54:13.256Z,1.70
2023-02-22T05:57:01.094Z,2.00
2023-02-22T05:59:47.465Z,2.13
2023-02-22T06:02:33.980Z,2.13
2023-02-22T06:05:20.205Z,5.23
2023-02-22T06:08:07.560Z,5.23
2023-02-22T06:10:54.956Z,2.80
2023-02-22T06:13:42.876Z,3.80
2023-02-22T06:16:29.521Z,4.33
2023-02-22T06:19:16.128Z,3.83
2023-02-22T06:22:03.178Z,3.57
2023-02-22T06:24:49.410Z,3.70
2023-02-22T06:27:36.311Z,5.17
2023-02-22T06:30:25.264Z,4.10
2023-02-22T06:33:12.038Z,2.63
2023-02-22T06:35:58.712Z,3.30
2023-02-22T06:38:45.073Z,3.90
2023-02-22T06:41:31.457Z,3.60
2023-02-22T06:44:17.538Z,2.80
2023-02-22T06:47:05.104Z,3.20
2023-02-22T06:49:53.878Z,4.60
2023-02-22T06:52:43.351Z,4.57
2023-02-22T06:55:30.998Z,4.97
2023-02-22T06:58:17.540Z,3.47
2023-02-22T07:01:04.086Z,4.00
2023-02-22T07:03:52.118Z,3.57
2023-02-22T07:06:38.630Z,2.33
2023-02-22T07:09:25.423Z,2.40
2023-02-22T07:12:11.613Z,2.17
2023-02-22T07:14:58.118Z,2.07
2023-02-22T07:17:44.550Z,2.40
2023-02-22T07:20:32.842Z,2.00
2023-02-22T07:23:19.773Z,2.13
2023-02-22T07:26:06.469Z,2.27
2023-02-22T07:28:52.916Z,2.20
2023-02-22T07:31:39.721Z,2.43
2023-02-22T07:34:26.351Z,2.80
2023-02-22T07:37:14.016Z,2.10
2023-02-22T07:40:00.601Z,2.27
2023-02-22T07:42:54.135Z,1.83
2023-02-22T07:45:40.212Z,2.13
2023-02-22T07:48:27.905Z,1.90
2023-02-22T07:51:17.457Z,1.60
2023-02-22T07:54:05.760Z,1.77
2023-02-22T07:56:52.178Z,1.50
2023-02-22T07:59:38.700Z,1.70
2023-02-22T08:02:27.091Z,1.50
2023-02-22T08:05:13.385Z,1.50
2023-02-22T08:07:59.500Z,1.50
2023-02-22T08:10:47.224Z,1.00
2023-02-22T08:13:33.869Z,1.40
2023-02-22T08:16:20.360Z,1.47
2023-02-22T08:19:08.741Z,1.53
2023-02-22T08:21:56.306Z,1.00
2023-02-22T08:24:42.429Z,0.90
2023-02-22T08:27:30.812Z,1.57
2023-02-22T08:30:18.348Z,2.63
2023-02-22T08:33:05.627Z,1.23
2023-02-22T08:35:52.165Z,1.33
2023-02-22T08:38:38.857Z,0.90
2023-02-22T08:41:28.144Z,1.23
2023-02-22T08:44:16.478Z,1.23
2023-02-22T08:47:02.799Z,1.20
2023-02-22T08:49:49.409Z,0.90
2023-02-22T08:52:36.244Z,1.13
2023-02-22T08:55:22.531Z,0.97
2023-02-22T08:58:10.458Z,0.80
2023-02-22T09:00:58.240Z,1.10
2023-02-22T09:03:44.689Z,1.10
2023-02-22T09:06:31.332Z,1.17
2023-02-22T09:09:19.134Z,1.10
2023-02-22T09:12:05.872Z,1.07
2023-02-22T09:14:52.303Z,0.93
2023-02-22T09:17:40.243Z,1.20
2023-02-22T09:20:26.763Z,1.40
2023-02-22T09:23:14.756Z,1.60
2023-02-22T09:26:01.435Z,1.23
2023-02-22T09:28:48.036Z,1.50
2023-02-22T09:31:36.681Z,0.93
2023-02-22T09:34:29.670Z,1.00
2023-02-22T09:37:17.793Z,0.93
2023-02-22T09:40:09.842Z,0.90
2023-02-22T09:43:03.325Z,1.10
2023-02-22T09:45:55.481Z,1.37
2023-02-22T09:48:46.447Z,1.23
2023-02-22T09:51:37.256Z,1.73
2023-02-22T09:54:26.092Z,1.20
2023-02-22T09:57:16.595Z,1.17
2023-02-22T10:00:13.714Z,1.50
2023-02-22T10:03:06.990Z,1.40
2023-02-22T10:05:56.943Z,1.60
2023-02-22T10:08:45.078Z,1.03
2023-02-22T10:11:46.632Z,0.90
2023-02-22T10:14:53.696Z,0.90
2023-02-22T10:17:43.728Z,1.40
2023-02-22T10:20:39.369Z,1.50
2023-02-22T10:23:30.285Z,1.90
2023-02-22T10:26:20.171Z,1.20
2023-02-22T10:29:10.670Z,1.40
2023-02-22T10:31:58.555Z,1.00
2023-02-22T10:34:48.481Z,1.03
2023-02-22T10:37:35.538Z,1.30
2023-02-22T10:40:32.032Z,1.10
2023-02-22T10:43:20.063Z,1.00
2023-02-22T10:46:08.393Z,1.00
2023-02-22T10:48:56.344Z,0.80
2023-02-22T10:51:42.723Z,1.30
2023-02-22T10:54:31.735Z,1.20
2023-02-22T10:57:21.703Z,1.20
2023-02-22T11:00:20.601Z,0.83
2023-02-22T11:03:17.223Z,0.90
2023-02-22T11:06:19.190Z,0.83
2023-02-22T11:09:10.425Z,0.80
2023-02-22T11:12:08.996Z,1.10
2023-02-22T11:14:55.556Z,1.27
2023-02-22T11:17:45.007Z,1.10
2023-02-22T11:20:34.734Z,2.05
2023-02-22T11:23:23.365Z,1.80
2023-02-22T11:26:10.557Z,1.20
2023-02-22T11:28:57.688Z,1.40
2023-02-22T11:31:45.107Z,1.40
2023-02-22T11:34:37.607Z,1.10
2023-02-22T11:37:31.607Z,1.30
2023-02-22T11:40:22.227Z,1.20
2023-02-22T11:43:12.375Z,1.00
2023-02-22T11:46:03.585Z,1.40
2023-02-22T11:48:58.565Z,1.23
2023-02-22T11:51:50.130Z,1.23
2023-02-22T11:54:42.161Z,1.30
2023-02-22T11:57:37.297Z,1.30
2023-02-22T12:00:27.839Z,1.20
2023-02-22T12:03:28.667Z,1.20
2023-02-22T12:06:20.435Z,1.30
2023-02-22T12:09:14.159Z,1.57
2023-02-22T12:12:05.435Z,1.63
2023-02-22T12:14:55.555Z,1.17
2023-02-22T12:18:05.757Z,2.63
2023-02-22T12:20:56.451Z,1.67
2023-02-22T12:23:45.936Z,1.53
2023-02-22T12:26:36.430Z,1.50
2023-02-22T12:29:27.225Z,1.60
2023-02-22T12:32:16.391Z,2.07
2023-02-22T12:35:05.740Z,1.90
2023-02-22T12:38:04.675Z,1.60
2023-02-22T12:40:57.126Z,1.87
2023-02-22T12:43:47.275Z,1.17
2023-02-22T12:46:37.113Z,1.60
2023-02-22T12:49:28.368Z,1.60
2023-02-22T12:52:22.067Z,2.20
2023-02-22T12:55:12.868Z,1.43
2023-02-22T12:58:02.228Z,1.80
2023-02-22T13:00:52.866Z,2.30
2023-02-22T13:03:40.422Z,1.40
2023-02-22T13:06:33.706Z,1.80
2023-02-22T13:09:26.761Z,1.57
2023-02-22T13:12:16.095Z,1.40
2023-02-22T13:15:09.222Z,1.67
2023-02-22T13:18:02.975Z,1.30
2023-02-22T13:20:50.854Z,1.40
2023-02-22T13:23:40.676Z,1.23
2023-02-22T13:26:30.116Z,1.77
2023-02-22T13:29:18.419Z,1.70
2023-02-22T13:32:08.708Z,1.73
2023-02-22T13:35:03.559Z,2.00
2023-02-22T13:37:57.496Z,1.87
2023-02-22T13:41:02.056Z,2.03
2023-02-22T13:44:06.014Z,2.00
2023-02-22T13:47:11.527Z,2.20
2023-02-22T13:50:11.385Z,1.90
2023-02-22T13:52:58.901Z,2.80
2023-02-22T13:55:50.673Z,2.23
2023-02-22T13:58:48.021Z,2.27
2023-02-22T14:01:39.249Z,2.40
2023-02-22T14:04:46.542Z,2.70
2023-02-22T14:07:59.674Z,2.87
2023-02-22T14:10:51.180Z,2.20
2023-02-22T14:14:10.876Z,2.40
2023-02-22T14:17:15.999Z,2.13
2023-02-22T14:20:04.450Z,1.80
2023-02-22T14:22:53.057Z,1.93
2023-02-22T14:25:40.802Z,1.80
2023-02-22T14:28:49.450Z,2.00
2023-02-22T14:31:54.724Z,2.03
2023-02-22T14:34:50.819Z,1.83
2023-02-22T14:37:39.082Z,1.97
2023-02-22T14:40:26.884Z,2.10
2023-02-22T14:43:14.854Z,1.90
2023-02-22T14:46:05.410Z,1.60
2023-02-22T14:48:54.377Z,2.13
2023-02-22T14:51:42.951Z,1.77
2023-02-22T14:54:31.930Z,1.80
2023-02-22T14:57:21.913Z,1.70
2023-02-22T15:00:20.222Z,1.77
2023-02-22T15:03:06.424Z,3.00
2023-02-22T15:05:54.154Z,2.23
2023-02-22T15:08:41.771Z,2.00
2023-02-22T15:11:31.094Z,1.90
2023-02-22T15:14:25.803Z,1.70
2023-02-22T15:17:15.442Z,2.10
2023-02-22T15:20:02.189Z,2.13
2023-02-22T15:22:50.929Z,1.90
2023-02-22T15:25:39.258Z,2.03
2023-02-22T15:28:25.986Z,1.90
2023-02-22T15:31:16.381Z,1.60
2023-02-22T15:34:24.375Z,1.90
2023-02-22T15:37:22.318Z,1.70
2023-02-22T15:40:14.698Z,1.87
2023-02-22T15:43:02.461Z,1.97
2023-02-22T15:45:51.142Z,1.93
2023-02-22T15:48:41.264Z,2.13
2023-02-22T15:51:30.390Z,2.17
2023-02-22T15:54:26.935Z,2.17
2023-02-22T15:57:19.847Z,1.77
2023-02-22T16:00:07.140Z,2.30
2023-02-22T16:02:53.275Z,2.87
2023-02-22T16:05:40.853Z,2.50
2023-02-22T16:08:29.356Z,2.63
2023-02-22T16:11:20.527Z,2.73
2023-02-22T16:14:24.102Z,2.13
2023-02-22T16:17:14.738Z,2.10
2023-02-22T16:20:01.460Z,1.90
2023-02-22T16:22:49.372Z,1.60
2023-02-22T16:25:37.428Z,2.57
2023-02-22T16:28:27.578Z,2.40
2023-02-22T16:31:15.853Z,2.83
2023-02-22T16:34:02.793Z,2.67
2023-02-22T16:36:51.636Z,2.53
2023-02-22T16:39:39.786Z,3.67
2023-02-22T16:42:27.266Z,4.07
2023-02-22T16:45:16.885Z,2.33
2023-02-22T16:48:12.760Z,2.23
2023-02-22T16:51:00.881Z,39.87
2023-02-22T16:53:48.805Z,17.07
2023-02-22T16:56:35.424Z,3.47
2023-02-22T16:59:21.722Z,3.10
2023-02-22T17:02:11.806Z,11.33
2023-02-22T17:04:59.466Z,19.13
2023-02-22T17:07:45.977Z,15.83
2023-02-22T17:10:32.615Z,13.50
2023-02-22T17:13:24.353Z,3.40
2023-02-22T17:16:15.235Z,2.60
2023-02-22T17:19:05.015Z,2.10
2023-02-22T17:21:52.699Z,2.93
2023-02-22T17:24:39.411Z,1.83
2023-02-22T17:27:25.497Z,2.53
2023-02-22T17:30:13.840Z,2.47
2023-02-22T17:33:03.646Z,15.43
2023-02-22T17:35:50.014Z,6.43
2023-02-22T17:38:41.581Z,4.83
2023-02-22T17:41:27.898Z,4.33
2023-02-22T17:44:14.136Z,36.13
2023-02-22T17:47:00.801Z,8.93
2023-02-22T17:49:46.899Z,12.87
2023-02-22T17:52:33.341Z,51.53
2023-02-22T17:55:21.585Z,19.07
2023-02-22T17:58:08.487Z,135.27
2023-02-22T18:00:59.284Z,197.03
2023-02-22T18:03:45.867Z,105.17
2023-02-22T18:06:32.884Z,69.57
2023-02-22T18:09:20.296Z,37.00
2023-02-22T18:12:12.114Z,22.47
2023-02-22T18:14:59.170Z,16.13
2023-02-22T18:17:46.852Z,8.60
2023-02-22T18:20:38.429Z,4.90
2023-02-22T18:23:27.917Z,4.73
2023-02-22T18:26:15.933Z,4.30
2023-02-22T18:29:03.828Z,4.10
2023-02-22T18:31:50.331Z,4.30
2023-02-22T18:34:36.748Z,3.37
2023-02-22T18:37:23.374Z,5.27
2023-02-22T18:40:10.727Z,4.87
2023-02-22T18:42:57.512Z,4.90
2023-02-22T18:45:45.080Z,4.77
2023-02-22T18:48:31.513Z,3.73
2023-02-22T18:51:18.132Z,4.63
2023-02-22T18:54:04.700Z,6.20
2023-02-22T18:56:51.436Z,5.97
2023-02-22T18:59:38.523Z,5.13
2023-02-22T19:02:26.652Z,6.50
2023-02-22T19:05:17.410Z,7.90
2023-02-22T19:08:04.534Z,7.67
2023-02-22T19:10:51.002Z,5.37
2023-02-22T19:13:37.695Z,5.23
2023-02-22T19:16:24.926Z,9.17
2023-02-22T19:19:20.785Z,5.30
2023-02-22T19:22:07.263Z,4.40
2023-02-22T19:24:54.758Z,4.53
2023-02-22T19:27:44.207Z,4.57
2023-02-22T19:30:30.547Z,4.60
2023-02-22T19:33:17.303Z,5.67
2023-02-22T19:36:05.442Z,4.87
2023-02-22T19:38:52.129Z,4.87
2023-02-22T19:41:38.835Z,5.00
2023-02-22T19:44:25.595Z,4.40
2023-02-22T19:47:11.735Z,6.60
2023-02-22T19:49:59.827Z,7.23
2023-02-22T19:52:48.757Z,5.90
2023-02-22T19:55:37.418Z,5.47
2023-02-22T19:58:23.538Z,5.37
2023-02-22T20:01:13.862Z,5.27
2023-02-22T20:04:01.713Z,5.13
2023-02-22T20:06:48.816Z,5.07
2023-02-22T20:09:39.594Z,4.10
2023-02-22T20:12:25.802Z,3.63
2023-02-22T20:15:13.799Z,5.10
2023-02-22T20:18:01.249Z,4.60
2023-02-22T20:20:47.256Z,4.70
2023-02-22T20:23:33.238Z,5.93
2023-02-22T20:26:22.549Z,9.30
2023-02-22T20:29:09.704Z,6.87
2023-02-22T20:31:56.682Z,4.73
2023-02-22T20:34:46.433Z,3.53
2023-02-22T20:37:33.453Z,3.97
2023-02-22T20:40:20.046Z,4.10
2023-02-22T20:43:07.913Z,4.63
2023-02-22T20:45:54.537Z,5.33
2023-02-22T20:48:40.889Z,6.10
2023-02-22T20:51:28.187Z,6.47
2023-02-22T20:54:14.690Z,6.80
2023-02-22T20:57:01.080Z,5.87
2023-02-22T20:59:48.702Z,6.23
2023-02-22T21:02:35.376Z,6.37
2023-02-22T21:05:21.635Z,6.77
2023-02-22T21:08:08.109Z,5.50
2023-02-22T21:10:54.263Z,4.97
2023-02-22T21:13:40.784Z,5.23
2023-02-22T21:16:29.339Z,5.67
2023-02-22T21:19:27.804Z,4.67
2023-02-22T21:22:14.449Z,4.30
2023-02-22T21:25:01.017Z,5.20
2023-02-22T21:27:47.826Z,5.23
2023-02-22T21:30:34.163Z,6.67
2023-02-22T21:33:22.106Z,6.53
2023-02-22T21:36:13.738Z,6.77
2023-02-22T21:39:01.348Z,6.80
2023-02-22T21:41:49.318Z,7.27
2023-02-22T21:44:37.300Z,10.33
2023-02-22T21:47:23.524Z,8.60
2023-02-22T21:50:12.201Z,6.33
2023-02-22T21:52:59.133Z,4.37
2023-02-22T21:55:45.348Z,7.67
2023-02-22T21:58:31.732Z,8.40
2023-02-22T22:01:18.312Z,8.43
2023-02-22T22:04:05.327Z,8.30
2023-02-22T22:06:54.175Z,9.63
2023-02-22T22:09:41.436Z,8.40
2023-02-22T22:12:38.544Z,7.53
2023-02-22T22:15:25.809Z,7.93
2023-02-22T22:18:12.194Z,7.13
2023-02-22T22:20:59.680Z,6.67
2023-02-22T22:23:48.155Z,5.90
2023-02-22T22:26:34.610Z,7.00
2023-02-22T22:29:23.549Z,7.53
2023-02-22T22:32:10.694Z,5.90
2023-02-22T22:34:59.397Z,4.93
2023-02-22T22:37:51.279Z,5.17
2023-02-22T22:40:39.808Z,5.83
2023-02-22T22:43:26.309Z,5.03
2023-02-22T22:46:13.008Z,4.53
2023-02-22T22:49:00.841Z,5.93
2023-02-22T22:51:47.638Z,6.77
2023-02-22T22:54:34.001Z,5.47
2023-02-22T22:57:23.416Z,5.27
2023-02-22T23:00:26.758Z,5.33
2023-02-22T23:03:17.529Z,6.03
2023-02-22T23:06:04.490Z,6.17
2023-02-22T23:08:54.445Z,6.63
2023-02-22T23:11:44.604Z,6.60
2023-02-22T23:14:32.730Z,5.53
2023-02-22T23:17:31.211Z,5.77
2023-02-22T23:20:18.074Z,6.57
2023-02-22T23:23:06.058Z,5.43
2023-02-22T23:26:01.566Z,6.00
2023-02-22T23:28:48.694Z,6.43
2023-02-22T23:31:39.673Z,7.10
2023-02-22T23:34:26.146Z,6.50
2023-02-22T23:37:14.121Z,6.73
2023-02-22T23:40:00.996Z,5.43
2023-02-22T23:42:50.750Z,5.57
2023-02-22T23:45:38.758Z,5.43
2023-02-22T23:48:30.076Z,5.13
2023-02-22T23:51:18.692Z,4.67
2023-02-22T23:54:06.106Z,6.10
2023-02-22T23:56:56.741Z,5.67
2023-02-22T23:59:45.656Z,5.70
